Terminal Aerodrome Forecast
Issued by NWS

Home | Current Version | Previous Version | Graphics & Text | Print | Product List | Glossary On
Versions: 1 2 3 4 5 6 7 8 9 10 11 12 13 14 15 16 17 18 19 20 21
000
FTUS43 KGRB 201246 AAB
TAFCWA
TAF AMD
KCWA 201246Z 2013/2112 11005KT 6SM BR OVC005
      TEMPO 2013/2016 5SM -FZDZ BR OVC003
     FM201800 26005KT 6SM BR OVC005
     FM202100 27009G17KT P6SM OVC008
     FM202300 29007KT P6SM BKN017
     FM210200 30010KT P6SM SCT025=

USA.gov is the U.S. government's official web portal to all federal, state and local government web resources and services.